Irenes Rainbow — A8WG4 — position and weather

sailwx.info

Track history (hours):
 
Tides and Currents Weather Stations Pressure Air Temp Water Temp Dewpoint Dewpoint Depression Visibility Wind Speed Wind Dir Waves Ship Positions

Irenes Rainbow

Last reported at 2017-Sep-19 19:00 UTC. Time now 2017-Sep-19 19:15 UTC.
Position N 28°30' W 016°10'.

Length 222 m; draft 11 m.

Type: Ship (hazmat cat A). MMSI: 636014741.

Date/timePositionNaut miles runAvg speedWind from/ knotsBaromVisibWave heightAir tempDewpointWater temp
2017-Sep-19 19:00N 28°30' W 016°10'0 0.0
2017-Sep-19 18:30N 28°30' W 016°10'0 0.0
2017-Sep-19 17:45N 28°30' W 016°10'0 0.0
2017-Sep-19 17:30N 28°30' W 016°10'0 0.0
2017-Sep-19 16:45N 28°30' W 016°10'0 0.0
2017-Sep-19 16:30N 28°30' W 016°10'0 0.0
2017-Sep-19 15:51N 28°30' W 016°10'0 0.0
2017-Sep-19 15:30N 28°30' W 016°10'0 0.0
2017-Sep-19 13:51N 28°30' W 016°10'0 0.0
2017-Sep-19 13:06N 28°30' W 016°10'0 0.0
2017-Sep-19 12:51N 28°30' W 016°10'0 0.0
2017-Sep-19 12:06N 28°30' W 016°10'0 0.0
2017-Sep-19 11:51N 28°30' W 016°10'0 0.0
2017-Sep-19 11:24N 28°30' W 016°10'0 0.0
2017-Sep-19 10:54N 28°30' W 016°10'0 0.0
2017-Sep-19 10:21N 28°30' W 016°10'0 0.0
2017-Sep-19 09:33N 28°30' W 016°10'0 0.0
2017-Sep-19 09:24N 28°30' W 016°10'0 0.1
2017-Sep-19 08:54N 28°30' W 016°10'0 0.0
2017-Sep-19 08:24N 28°30' W 016°10'0 0.0
2017-Sep-19 07:54N 28°30' W 016°10'0 0.1
2017-Sep-19 07:24N 28°30' W 016°10'0 0.1
2017-Sep-19 06:54N 28°30' W 016°10'0 0.1
2017-Sep-19 06:27N 28°30' W 016°10'0 0.1
2017-Sep-19 05:57N 28°30' W 016°10'0 0.0
2017-Sep-19 05:27N 28°30' W 016°10'0 0.0
2017-Sep-19 04:51N 28°30' W 016°10'0 0.0
2017-Sep-19 04:27N 28°30' W 016°10'0 0.0
2017-Sep-19 03:57N 28°30' W 016°10'0 0.2
2017-Sep-19 03:27N 28°30' W 016°10'0 0.1
2017-Sep-19 02:57N 28°31' W 016°10'0 0.1
2017-Sep-19 02:27N 28°31' W 016°10'0 0.1
2017-Sep-19 01:57N 28°31' W 016°10'0 0.1
2017-Sep-19 01:30N 28°31' W 016°10'0 0.0
2017-Sep-19 01:00N 28°31' W 016°10'0 0.1
2017-Sep-19 00:30N 28°31' W 016°10'0 0.1
2017-Sep-18 23:57N 28°31' W 016°10'0 0.1
2017-Sep-18 23:30N 28°31' W 016°10'0 0.0
2017-Sep-18 23:00N 28°31' W 016°10'0 0.1
2017-Sep-18 22:30N 28°30' W 016°10'0 0.0
2017-Sep-18 21:27N 28°30' W 016°10'0 0.0
2017-Sep-18 20:42N 28°30' W 016°10'0 0.0
2017-Sep-18 20:30N 28°30' W 016°10'0 0.0
2017-Sep-18 20:00N 28°30' W 016°10'0 1.0
2017-Sep-18 19:30N 28°30' W 016°10'2 4.6
2017-Sep-18 19:00N 28°28' W 016°11'7 9.5
2017-Sep-18 18:16N 28°28' W 016°04'2 8.1
2017-Sep-18 18:00N 28°30' W 016°03'1 1.2
2017-Sep-18 17:30N 28°30' W 016°02'1 1.6
2017-Sep-18 17:00N 28°30' W 016°02'2 3.8
2017-Sep-18 16:30N 28°28' W 016°02'611.1
2017-Sep-18 16:00N 28°23' W 016°00'612.0
2017-Sep-18 15:30N 28°19' W 015°55'612.2
2017-Sep-18 15:00N 28°18' W 015°48'611.8
2017-Sep-18 14:30N 28°17' W 015°42'612.3
2017-Sep-18 14:00N 28°16' W 015°35'612.8
2017-Sep-18 13:30N 28°15' W 015°28'612.1
2017-Sep-18 13:00N 28°13' W 015°21'4 8.1
2017-Sep-18 12:30N 28°09' W 015°23'1 1.1
2017-Sep-18 11:51N 28°09' W 015°24'0 0.0
2017-Sep-18 11:24N 28°09' W 015°24'0 0.0
2017-Sep-18 10:54N 28°09' W 015°24'0 0.1
2017-Sep-18 10:24N 28°09' W 015°24'0 1.0
2017-Sep-18 10:00N 28°08' W 015°24'1 1.4
2017-Sep-18 09:30N 28°09' W 015°23'1 1.2
2017-Sep-18 08:54N 28°09' W 015°24'0 0.0
2017-Sep-18 08:24N 28°09' W 015°24'0 0.0
2017-Sep-18 07:54N 28°09' W 015°24'0 0.1
2017-Sep-18 07:24N 28°09' W 015°24'0 0.0
2017-Sep-18 06:54N 28°09' W 015°24'0 0.1
2017-Sep-18 06:24N 28°09' W 015°24'0 0.0
2017-Sep-18 05:54N 28°09' W 015°24'0 0.0
2017-Sep-18 05:24N 28°09' W 015°24'0 0.0
2017-Sep-18 04:57N 28°09' W 015°24'0 0.0
2017-Sep-18 04:27N 28°09' W 015°24'0 0.0
2017-Sep-18 03:57N 28°09' W 015°24'0 0.0
2017-Sep-18 03:27N 28°09' W 015°24'0 0.0
2017-Sep-18 02:57N 28°09' W 015°24'0 0.1
2017-Sep-18 02:27N 28°09' W 015°24'0 0.0
2017-Sep-18 01:57N 28°09' W 015°24'0 0.0
2017-Sep-18 01:27N 28°09' W 015°24'0 0.0
2017-Sep-18 00:57N 28°09' W 015°24'0 0.0
2017-Sep-18 00:27N 28°09' W 015°24'0 0.1
2017-Sep-18 00:00N 28°09' W 015°24'0 0.0
2017-Sep-17 23:30N 28°09' W 015°24'0 0.0
2017-Sep-17 23:00N 28°09' W 015°24'0 0.0
2017-Sep-17 22:30N 28°09' W 015°24'0 0.0
2017-Sep-17 22:00N 28°09' W 015°24'0 0.0
2017-Sep-17 21:30N 28°09' W 015°24'0 0.0
2017-Sep-17 21:00N 28°09' W 015°24'0 0.0
2017-Sep-17 20:30N 28°09' W 015°24'0 0.0
2017-Sep-17 20:00N 28°09' W 015°24'0 0.0
2017-Sep-17 19:30N 28°09' W 015°24'0 0.0
2017-Sep-17 19:00N 28°09' W 015°24'0 0.0
2017-Sep-17 18:30N 28°09' W 015°24'0 0.0
2017-Sep-17 18:00N 28°09' W 015°24'0 0.0
2017-Sep-17 17:27N 28°09' W 015°24'0 0.1
2017-Sep-17 17:00N 28°09' W 015°24'0 0.0
2017-Sep-17 16:30N 28°09' W 015°24'0 0.0
2017-Sep-17 16:00N 28°09' W 015°24'0 0.0
2017-Sep-17 15:30N 28°09' W 015°24'0 0.0
2017-Sep-17 15:00N 28°09' W 015°24'0 0.0
2017-Sep-17 14:30N 28°09' W 015°24'0 0.0
2017-Sep-17 14:00N 28°09' W 015°24'0 0.0
2017-Sep-17 13:30N 28°09' W 015°24'0 0.1
2017-Sep-17 13:00N 28°09' W 015°24'0 0.1
2017-Sep-17 12:30N 28°09' W 015°24'0 0.0
2017-Sep-17 11:51N 28°09' W 015°24'0 0.0
2017-Sep-17 11:21N 28°09' W 015°24'0 0.0
2017-Sep-17 10:51N 28°09' W 015°24'0 0.0
2017-Sep-17 10:21N 28°09' W 015°24'0 0.0
2017-Sep-17 09:51N 28°09' W 015°24'0 0.0
2017-Sep-17 09:24N 28°09' W 015°24'0 0.0
2017-Sep-17 08:54N 28°09' W 015°24'0 0.0
2017-Sep-17 08:24N 28°09' W 015°24'0 0.0
2017-Sep-17 07:54N 28°09' W 015°24'0 0.0
2017-Sep-17 07:24N 28°09' W 015°24'0 0.0
2017-Sep-17 06:54N 28°09' W 015°24'0 0.0
2017-Sep-17 06:24N 28°09' W 015°24'0 0.0
2017-Sep-17 05:54N 28°09' W 015°24'0 0.0
2017-Sep-17 05:24N 28°09' W 015°24'0 0.0
2017-Sep-17 04:57N 28°09' W 015°24'0 0.1
2017-Sep-17 04:27N 28°09' W 015°24'0 0.1
2017-Sep-17 03:57N 28°09' W 015°24'0 0.0
2017-Sep-17 03:27N 28°09' W 015°24'0 0.0
2017-Sep-17 02:57N 28°09' W 015°24'0 0.0
2017-Sep-17 02:27N 28°09' W 015°24'0 0.0
2017-Sep-17 01:57N 28°09' W 015°24'0 0.0
2017-Sep-17 01:26N 28°09' W 015°24'0 0.0
2017-Sep-17 00:56N 28°09' W 015°24'0 0.1
2017-Sep-17 00:26N 28°09' W 015°24'0 0.0
2017-Sep-16 23:59N 28°09' W 015°24'0 0.0
2017-Sep-16 23:29N 28°09' W 015°24'0 0.0
2017-Sep-16 22:56N 28°09' W 015°24'0 0.1
2017-Sep-16 22:29N 28°09' W 015°24'0 0.0
2017-Sep-16 21:59N 28°09' W 015°24'0 0.0
2017-Sep-16 21:29N 28°09' W 015°24'0 0.0
2017-Sep-16 20:59N 28°09' W 015°24'0 0.0
2017-Sep-16 20:29N 28°09' W 015°24'0 0.1
2017-Sep-16 19:59N 28°09' W 015°24'0 0.0
2017-Sep-16 19:29N 28°09' W 015°24'0 0.0
2017-Sep-16 18:59N 28°09' W 015°24'0 0.0
2017-Sep-16 18:29N 28°09' W 015°24'0 0.0
2017-Sep-16 17:59N 28°09' W 015°24'0 0.0
2017-Sep-16 17:29N 28°09' W 015°24'0 0.0
2017-Sep-16 16:59N 28°09' W 015°24'0 0.0
2017-Sep-16 16:29N 28°09' W 015°24'0 0.0
2017-Sep-16 15:59N 28°09' W 015°24'0 0.0
2017-Sep-16 15:29N 28°09' W 015°24'0 0.0
2017-Sep-16 14:59N 28°09' W 015°24'0 0.0
2017-Sep-16 14:29N 28°09' W 015°24'0 0.0
2017-Sep-16 13:59N 28°09' W 015°24'0 0.0
2017-Sep-16 13:29N 28°09' W 015°24'0 0.0
2017-Sep-16 12:59N 28°09' W 015°24'0 0.0
2017-Sep-16 12:29N 28°09' W 015°24'0 0.0
2017-Sep-16 11:50N 28°09' W 015°24'0 0.1
2017-Sep-16 11:20N 28°09' W 015°24'0 0.1
2017-Sep-16 10:50N 28°09' W 015°24'0 0.0
2017-Sep-16 10:20N 28°09' W 015°24'0 0.0
2017-Sep-16 09:50N 28°09' W 015°24'0 0.0
2017-Sep-16 09:23N 28°09' W 015°24'0 0.0
2017-Sep-16 08:53N 28°09' W 015°24'0 0.0
2017-Sep-16 08:23N 28°09' W 015°24'0 0.0
2017-Sep-16 07:53N 28°09' W 015°24'0 0.0
2017-Sep-16 07:23N 28°09' W 015°24'0 0.0
2017-Sep-16 06:53N 28°09' W 015°24'0 0.0
2017-Sep-16 06:23N 28°09' W 015°24'0 0.0
2017-Sep-16 05:53N 28°09' W 015°24'0 0.0
2017-Sep-16 05:23N 28°09' W 015°24'0 0.0
2017-Sep-16 04:53N 28°09' W 015°24'0 0.1
2017-Sep-16 04:26N 28°09' W 015°24'0 0.0
2017-Sep-16 03:53N 28°09' W 015°24'0 0.0
2017-Sep-16 03:26N 28°09' W 015°24'0 0.0
2017-Sep-16 02:56N 28°09' W 015°24'0 0.0
2017-Sep-16 02:26N 28°09' W 015°24'0 0.0
2017-Sep-16 01:56N 28°09' W 015°24'0 0.0
2017-Sep-16 01:26N 28°09' W 015°24'0 0.3
2017-Sep-16 01:00N 28°09' W 015°24'2 4.0
2017-Sep-16 00:30N 28°07' W 015°22'4 7.3
2017-Sep-16 00:00N 28°07' W 015°18'611.3
2017-Sep-15 23:30N 28°07' W 015°11'612.3
2017-Sep-15 23:00N 28°08' W 015°05'510.5
2017-Sep-15 22:30N 28°11' W 014°59'611.8
2017-Sep-15 22:00N 28°16' W 014°57'612.1
2017-Sep-15 21:30N 28°22' W 014°54'612.4
2017-Sep-15 21:00N 28°27' W 014°50'612.5
2017-Sep-15 20:30N 28°32' W 014°46'612.4
2017-Sep-15 20:01N 28°37' W 014°42'712.5
2017-Sep-15 19:27N 28°43' W 014°38'512.5
2017-Sep-15 19:01N 28°47' W 014°34'712.2
2017-Sep-15 18:29N 28°53' W 014°30'612.0
2017-Sep-15 17:58N 28°58' W 014°26'612.2
2017-Sep-15 17:31N 29°02' W 014°22'712.4
2017-Sep-15 16:57N 29°08' W 014°17'612.3
2017-Sep-15 16:27N 29°13' W 014°14'511.7
2017-Sep-15 16:01N 29°17' W 014°10'612.2
2017-Sep-15 15:30N 29°22' W 014°06'612.3
2017-Sep-15 15:00N 29°27' W 014°02'612.3
2017-Sep-15 14:30N 29°32' W 013°59'612.4
2017-Sep-15 13:59N 29°38' W 013°54'612.6
2017-Sep-15 13:30N 29°42' W 013°49'612.4
2017-Sep-15 13:00N 29°46' W 013°44'612.3
2017-Sep-15 12:31N 29°50' W 013°38'612.2
2017-Sep-15 11:59N 29°54' W 013°33'612.2
2017-Sep-15 11:30N 29°58' W 013°28'612.1
2017-Sep-15 11:00N 30°02' W 013°23'612.1
2017-Sep-15 10:30N 30°07' W 013°18'612.1
2017-Sep-15 09:59N 30°11' W 013°13'612.3
2017-Sep-15 09:30N 30°15' W 013°08'612.4
2017-Sep-15 09:00N 30°19' W 013°02'612.4
2017-Sep-15 08:30N 30°24' W 012°57'612.6
2017-Sep-15 08:00N 30°28' W 012°52'612.8
2017-Sep-15 07:30N 30°32' W 012°46'612.8
2017-Sep-15 07:00N 30°37' W 012°41'612.6
2017-Sep-15 06:31N 30°41' W 012°36'612.3
2017-Sep-15 06:00N 30°45' W 012°30'612.4
2017-Sep-15 05:30N 30°49' W 012°25'612.2
2017-Sep-15 05:01N 30°54' W 012°20'612.3
2017-Sep-15 04:29N 30°58' W 012°15'612.3
2017-Sep-15 04:00N 31°02' W 012°09'1212.4
2017-Sep-15 03:00N 31°10' W 011°59'612.1
2017-Sep-15 02:30N 31°15' W 011°54'1911.9
2017-Sep-15 00:55N 31°28' W 011°38'2212.0
2017-Sep-14 23:07N 31°42' W 011°19'212.5
2017-Sep-14 22:59N 31°43' W 011°18'612.4
2017-Sep-14 22:29N 31°48' W 011°13'1012.8
2017-Sep-14 21:44N 31°54' W 011°05'312.8
2017-Sep-14 21:31N 31°56' W 011°02'812.7
2017-Sep-14 20:51N 32°02' W 010°55'412.5
2017-Sep-14 20:30N 32°05' W 010°51'612.4
2017-Sep-14 20:01N 32°09' W 010°46'612.4
2017-Sep-14 19:30N 32°13' W 010°40'612.5
2017-Sep-14 19:00N 32°18' W 010°35'612.3
2017-Sep-14 18:30N 32°22' W 010°30'612.1
2017-Sep-14 18:00N 32°26' W 010°25'611.9
2017-Sep-14 17:30N 32°30' W 010°19'611.9
2017-Sep-14 17:00N 32°34' W 010°14'612.1
2017-Sep-14 16:29N 32°38' W 010°09'712.3
2017-Sep-14 15:54N 32°43' W 010°02'1112.3
2017-Sep-14 14:59N 32°51' W 009°52'612.3
2017-Sep-14 14:30N 32°55' W 009°47'3912.5
2017-Sep-14 11:21N 33°22' W 009°13'1412.8
2017-Sep-14 10:18N 33°31' W 009°01'4812.7
2017-Sep-14 06:33N 34°04' W 008°20'112.0
2017-Sep-14 06:27N 34°05' W 008°19'511.8
2017-Sep-14 06:01N 34°08' W 008°14'611.9
2017-Sep-14 05:30N 34°12' W 008°09'612.0
2017-Sep-14 05:00N 34°16' W 008°04'611.8
2017-Sep-14 04:30N 34°21' W 007°58'3112.1
2017-Sep-14 01:54N 34°42' W 007°31'912.1
2017-Sep-14 01:09N 34°48' W 007°23'211.6
2017-Sep-14 00:57N 34°50' W 007°21'1412.0
2017-Sep-13 23:48N 34°59' W 007°08'412.8
2017-Sep-13 23:29N 35°02' W 007°04'1412.3
2017-Sep-13 22:21N 35°10' W 006°51'412.1
2017-Sep-13 22:00N 35°13' W 006°47'612.4
2017-Sep-13 21:29N 35°18' W 006°42'3612.5
2017-Sep-13 18:38N 35°43' W 006°11'312.7
2017-Sep-13 18:25N 35°45' W 006°09'612.5
2017-Sep-13 17:59N 35°49' W 006°04'3412.8
2017-Sep-13 15:19N 36°01' W 005°25'412.2
2017-Sep-13 15:01N 36°02' W 005°20'22312.3
2017-Sep-12 20:54N 36°31' W 000°45'513.0
2017-Sep-12 20:30N 36°32' W 000°39'713.1
2017-Sep-12 19:58N 36°34' W 000°31'14213.3
2017-Sep-12 09:18N 37°12' E 002°20'412.9
2017-Sep-12 09:00N 37°13' E 002°24'613.0
2017-Sep-12 08:31N 37°15' E 002°32'816.5
2017-Sep-12 08:00N 37°17' E 002°42'613.0
2017-Sep-12 07:30N 37°19' E 002°50'3512.7
2017-Sep-12 04:45N 37°28' E 003°32'312.6
2017-Sep-12 04:29N 37°29' E 003°36'612.5
2017-Sep-12 03:59N 37°31' E 003°44'612.6
2017-Sep-12 03:30N 37°32' E 003°51'612.7
2017-Sep-12 03:00N 37°34' E 003°59'612.6
2017-Sep-12 02:30N 37°36' E 004°07'712.4
2017-Sep-12 01:58N 37°37' E 004°15'612.6
2017-Sep-12 01:30N 37°37' E 004°22'612.6
2017-Sep-12 01:00N 37°38' E 004°30'612.6
2017-Sep-12 00:30N 37°38' E 004°38'612.5
2017-Sep-12 00:00N 37°39' E 004°46'612.3
2017-Sep-11 23:30N 37°39' E 004°54'612.3
2017-Sep-11 22:59N 37°40' E 005°02'612.4
2017-Sep-11 22:30N 37°40' E 005°09'612.4
2017-Sep-11 22:00N 37°41' E 005°17'612.4
2017-Sep-11 21:30N 37°42' E 005°25'32610.9
2017-Sep-10 15:39N 37°00' E 012°12'212.3
2017-Sep-10 15:30N 36°60' E 012°14'612.2
2017-Sep-10 15:00N 36°58' E 012°21'1212.3
2017-Sep-10 14:00N 36°53' E 012°36'612.0
2017-Sep-10 13:30N 36°51' E 012°42'612.0
2017-Sep-10 13:00N 36°49' E 012°49'612.0
2017-Sep-10 12:30N 36°47' E 012°56'611.9
2017-Sep-10 12:00N 36°45' E 013°03'611.7
2017-Sep-10 11:30N 36°43' E 013°10'612.1
2017-Sep-10 11:00N 36°41' E 013°17'612.1
2017-Sep-10 10:30N 36°38' E 013°24'612.2
2017-Sep-10 10:00N 36°36' E 013°31'612.1
2017-Sep-10 09:29N 36°34' E 013°39'612.1
2017-Sep-10 09:00N 36°32' E 013°46'612.0
2017-Sep-10 08:30N 36°30' E 013°53'612.1
2017-Sep-10 08:00N 36°28' E 013°60'612.1
2017-Sep-10 07:30N 36°26' E 014°07'612.0
2017-Sep-10 07:00N 36°23' E 014°14'612.1
2017-Sep-10 06:30N 36°21' E 014°21'612.3
2017-Sep-10 06:00N 36°19' E 014°28'612.4
2017-Sep-10 05:30N 36°17' E 014°35'612.4
2017-Sep-10 05:00N 36°15' E 014°42'612.3
2017-Sep-10 04:30N 36°14' E 014°50'  
Track history (hours):
 
Tides and Currents Weather Stations Pressure Air Temp Water Temp Dewpoint Dewpoint Depression Visibility Wind Speed Wind Dir Waves Ship Positions

Irenes Rainbow

Last reported at 2017-Sep-19 19:00 UTC. Time now 2017-Sep-19 19:15 UTC.
Position N 28°30' W 016°10'.

Length 222 m; draft 11 m.

Type: Ship (hazmat cat A). MMSI: 636014741.

Date/timePositionNaut miles runAvg speedWind from/ knotsBaromVisibWave heightAir tempDewpointWater temp
2017-Sep-19 19:00N 28°30' W 016°10'0 0.0
2017-Sep-19 18:30N 28°30' W 016°10'0 0.0
2017-Sep-19 17:45N 28°30' W 016°10'0 0.0
2017-Sep-19 17:30N 28°30' W 016°10'0 0.0
2017-Sep-19 16:45N 28°30' W 016°10'0 0.0
2017-Sep-19 16:30N 28°30' W 016°10'0 0.0
2017-Sep-19 15:51N 28°30' W 016°10'0 0.0
2017-Sep-19 15:30N 28°30' W 016°10'0 0.0
2017-Sep-19 13:51N 28°30' W 016°10'0 0.0
2017-Sep-19 13:06N 28°30' W 016°10'0 0.0
2017-Sep-19 12:51N 28°30' W 016°10'0 0.0
2017-Sep-19 12:06N 28°30' W 016°10'0 0.0
2017-Sep-19 11:51N 28°30' W 016°10'0 0.0
2017-Sep-19 11:24N 28°30' W 016°10'0 0.0
2017-Sep-19 10:54N 28°30' W 016°10'0 0.0
2017-Sep-19 10:21N 28°30' W 016°10'0 0.0
2017-Sep-19 09:33N 28°30' W 016°10'0 0.0
2017-Sep-19 09:24N 28°30' W 016°10'0 0.1
2017-Sep-19 08:54N 28°30' W 016°10'0 0.0
2017-Sep-19 08:24N 28°30' W 016°10'0 0.0
2017-Sep-19 07:54N 28°30' W 016°10'0 0.1
2017-Sep-19 07:24N 28°30' W 016°10'0 0.1
2017-Sep-19 06:54N 28°30' W 016°10'0 0.1
2017-Sep-19 06:27N 28°30' W 016°10'0 0.1
2017-Sep-19 05:57N 28°30' W 016°10'0 0.0
2017-Sep-19 05:27N 28°30' W 016°10'0 0.0
2017-Sep-19 04:51N 28°30' W 016°10'0 0.0
2017-Sep-19 04:27N 28°30' W 016°10'0 0.0
2017-Sep-19 03:57N 28°30' W 016°10'0 0.2
2017-Sep-19 03:27N 28°30' W 016°10'0 0.1
2017-Sep-19 02:57N 28°31' W 016°10'0 0.1
2017-Sep-19 02:27N 28°31' W 016°10'0 0.1
2017-Sep-19 01:57N 28°31' W 016°10'0 0.1
2017-Sep-19 01:30N 28°31' W 016°10'0 0.0
2017-Sep-19 01:00N 28°31' W 016°10'0 0.1
2017-Sep-19 00:30N 28°31' W 016°10'0 0.1
2017-Sep-18 23:57N 28°31' W 016°10'0 0.1
2017-Sep-18 23:30N 28°31' W 016°10'0 0.0
2017-Sep-18 23:00N 28°31' W 016°10'0 0.1
2017-Sep-18 22:30N 28°30' W 016°10'0 0.0
2017-Sep-18 21:27N 28°30' W 016°10'0 0.0
2017-Sep-18 20:42N 28°30' W 016°10'0 0.0
2017-Sep-18 20:30N 28°30' W 016°10'0 0.0
2017-Sep-18 20:00N 28°30' W 016°10'0 1.0
2017-Sep-18 19:30N 28°30' W 016°10'2 4.6
2017-Sep-18 19:00N 28°28' W 016°11'7 9.5
2017-Sep-18 18:16N 28°28' W 016°04'2 8.1
2017-Sep-18 18:00N 28°30' W 016°03'1 1.2
2017-Sep-18 17:30N 28°30' W 016°02'1 1.6
2017-Sep-18 17:00N 28°30' W 016°02'2 3.8
2017-Sep-18 16:30N 28°28' W 016°02'611.1
2017-Sep-18 16:00N 28°23' W 016°00'612.0
2017-Sep-18 15:30N 28°19' W 015°55'612.2
2017-Sep-18 15:00N 28°18' W 015°48'611.8
2017-Sep-18 14:30N 28°17' W 015°42'612.3
2017-Sep-18 14:00N 28°16' W 015°35'612.8
2017-Sep-18 13:30N 28°15' W 015°28'612.1
2017-Sep-18 13:00N 28°13' W 015°21'4 8.1
2017-Sep-18 12:30N 28°09' W 015°23'1 1.1
2017-Sep-18 11:51N 28°09' W 015°24'0 0.0
2017-Sep-18 11:24N 28°09' W 015°24'0 0.0
2017-Sep-18 10:54N 28°09' W 015°24'0 0.1
2017-Sep-18 10:24N 28°09' W 015°24'0 1.0
2017-Sep-18 10:00N 28°08' W 015°24'1 1.4
2017-Sep-18 09:30N 28°09' W 015°23'1 1.2
2017-Sep-18 08:54N 28°09' W 015°24'0 0.0
2017-Sep-18 08:24N 28°09' W 015°24'0 0.0
2017-Sep-18 07:54N 28°09' W 015°24'0 0.1
2017-Sep-18 07:24N 28°09' W 015°24'0 0.0
2017-Sep-18 06:54N 28°09' W 015°24'0 0.1
2017-Sep-18 06:24N 28°09' W 015°24'0 0.0
2017-Sep-18 05:54N 28°09' W 015°24'0 0.0
2017-Sep-18 05:24N 28°09' W 015°24'0 0.0
2017-Sep-18 04:57N 28°09' W 015°24'0 0.0
2017-Sep-18 04:27N 28°09' W 015°24'0 0.0
2017-Sep-18 03:57N 28°09' W 015°24'0 0.0
2017-Sep-18 03:27N 28°09' W 015°24'0 0.0
2017-Sep-18 02:57N 28°09' W 015°24'0 0.1
2017-Sep-18 02:27N 28°09' W 015°24'0 0.0
2017-Sep-18 01:57N 28°09' W 015°24'0 0.0
2017-Sep-18 01:27N 28°09' W 015°24'0 0.0
2017-Sep-18 00:57N 28°09' W 015°24'0 0.0
2017-Sep-18 00:27N 28°09' W 015°24'0 0.1
2017-Sep-18 00:00N 28°09' W 015°24'0 0.0
2017-Sep-17 23:30N 28°09' W 015°24'0 0.0
2017-Sep-17 23:00N 28°09' W 015°24'0 0.0
2017-Sep-17 22:30N 28°09' W 015°24'0 0.0
2017-Sep-17 22:00N 28°09' W 015°24'0 0.0
2017-Sep-17 21:30N 28°09' W 015°24'0 0.0
2017-Sep-17 21:00N 28°09' W 015°24'0 0.0
2017-Sep-17 20:30N 28°09' W 015°24'0 0.0
2017-Sep-17 20:00N 28°09' W 015°24'0 0.0
2017-Sep-17 19:30N 28°09' W 015°24'0 0.0
2017-Sep-17 19:00N 28°09' W 015°24'0 0.0
2017-Sep-17 18:30N 28°09' W 015°24'0 0.0
2017-Sep-17 18:00N 28°09' W 015°24'0 0.0
2017-Sep-17 17:27N 28°09' W 015°24'0 0.1
2017-Sep-17 17:00N 28°09' W 015°24'0 0.0
2017-Sep-17 16:30N 28°09' W 015°24'0 0.0
2017-Sep-17 16:00N 28°09' W 015°24'0 0.0
2017-Sep-17 15:30N 28°09' W 015°24'0 0.0
2017-Sep-17 15:00N 28°09' W 015°24'0 0.0
2017-Sep-17 14:30N 28°09' W 015°24'0 0.0
2017-Sep-17 14:00N 28°09' W 015°24'0 0.0
2017-Sep-17 13:30N 28°09' W 015°24'0 0.1
2017-Sep-17 13:00N 28°09' W 015°24'0 0.1
2017-Sep-17 12:30N 28°09' W 015°24'0 0.0
2017-Sep-17 11:51N 28°09' W 015°24'0 0.0
2017-Sep-17 11:21N 28°09' W 015°24'0 0.0
2017-Sep-17 10:51N 28°09' W 015°24'0 0.0
2017-Sep-17 10:21N 28°09' W 015°24'0 0.0
2017-Sep-17 09:51N 28°09' W 015°24'0 0.0
2017-Sep-17 09:24N 28°09' W 015°24'0 0.0
2017-Sep-17 08:54N 28°09' W 015°24'0 0.0
2017-Sep-17 08:24N 28°09' W 015°24'0 0.0
2017-Sep-17 07:54N 28°09' W 015°24'0 0.0
2017-Sep-17 07:24N 28°09' W 015°24'0 0.0
2017-Sep-17 06:54N 28°09' W 015°24'0 0.0
2017-Sep-17 06:24N 28°09' W 015°24'0 0.0
2017-Sep-17 05:54N 28°09' W 015°24'0 0.0
2017-Sep-17 05:24N 28°09' W 015°24'0 0.0
2017-Sep-17 04:57N 28°09' W 015°24'0 0.1
2017-Sep-17 04:27N 28°09' W 015°24'0 0.1
2017-Sep-17 03:57N 28°09' W 015°24'0 0.0
2017-Sep-17 03:27N 28°09' W 015°24'0 0.0
2017-Sep-17 02:57N 28°09' W 015°24'0 0.0
2017-Sep-17 02:27N 28°09' W 015°24'0 0.0
2017-Sep-17 01:57N 28°09' W 015°24'0 0.0
2017-Sep-17 01:26N 28°09' W 015°24'0 0.0
2017-Sep-17 00:56N 28°09' W 015°24'0 0.1
2017-Sep-17 00:26N 28°09' W 015°24'0 0.0
2017-Sep-16 23:59N 28°09' W 015°24'0 0.0
2017-Sep-16 23:29N 28°09' W 015°24'0 0.0
2017-Sep-16 22:56N 28°09' W 015°24'0 0.1
2017-Sep-16 22:29N 28°09' W 015°24'0 0.0
2017-Sep-16 21:59N 28°09' W 015°24'0 0.0
2017-Sep-16 21:29N 28°09' W 015°24'0 0.0
2017-Sep-16 20:59N 28°09' W 015°24'0 0.0
2017-Sep-16 20:29N 28°09' W 015°24'0 0.1
2017-Sep-16 19:59N 28°09' W 015°24'0 0.0
2017-Sep-16 19:29N 28°09' W 015°24'0 0.0
2017-Sep-16 18:59N 28°09' W 015°24'0 0.0
2017-Sep-16 18:29N 28°09' W 015°24'0 0.0
2017-Sep-16 17:59N 28°09' W 015°24'0 0.0
2017-Sep-16 17:29N 28°09' W 015°24'0 0.0
2017-Sep-16 16:59N 28°09' W 015°24'0 0.0
2017-Sep-16 16:29N 28°09' W 015°24'0 0.0
2017-Sep-16 15:59N 28°09' W 015°24'0 0.0
2017-Sep-16 15:29N 28°09' W 015°24'0 0.0
2017-Sep-16 14:59N 28°09' W 015°24'0 0.0
2017-Sep-16 14:29N 28°09' W 015°24'0 0.0
2017-Sep-16 13:59N 28°09' W 015°24'0 0.0
2017-Sep-16 13:29N 28°09' W 015°24'0 0.0
2017-Sep-16 12:59N 28°09' W 015°24'0 0.0
2017-Sep-16 12:29N 28°09' W 015°24'0 0.0
2017-Sep-16 11:50N 28°09' W 015°24'0 0.1
2017-Sep-16 11:20N 28°09' W 015°24'0 0.1
2017-Sep-16 10:50N 28°09' W 015°24'0 0.0
2017-Sep-16 10:20N 28°09' W 015°24'0 0.0
2017-Sep-16 09:50N 28°09' W 015°24'0 0.0
2017-Sep-16 09:23N 28°09' W 015°24'0 0.0
2017-Sep-16 08:53N 28°09' W 015°24'0 0.0
2017-Sep-16 08:23N 28°09' W 015°24'0 0.0
2017-Sep-16 07:53N 28°09' W 015°24'0 0.0
2017-Sep-16 07:23N 28°09' W 015°24'0 0.0
2017-Sep-16 06:53N 28°09' W 015°24'0 0.0
2017-Sep-16 06:23N 28°09' W 015°24'0 0.0
2017-Sep-16 05:53N 28°09' W 015°24'0 0.0
2017-Sep-16 05:23N 28°09' W 015°24'0 0.0
2017-Sep-16 04:53N 28°09' W 015°24'0 0.1
2017-Sep-16 04:26N 28°09' W 015°24'0 0.0
2017-Sep-16 03:53N 28°09' W 015°24'0 0.0
2017-Sep-16 03:26N 28°09' W 015°24'0 0.0
2017-Sep-16 02:56N 28°09' W 015°24'0 0.0
2017-Sep-16 02:26N 28°09' W 015°24'0 0.0
2017-Sep-16 01:56N 28°09' W 015°24'0 0.0
2017-Sep-16 01:26N 28°09' W 015°24'0 0.3
2017-Sep-16 01:00N 28°09' W 015°24'2 4.0
2017-Sep-16 00:30N 28°07' W 015°22'4 7.3
2017-Sep-16 00:00N 28°07' W 015°18'611.3
2017-Sep-15 23:30N 28°07' W 015°11'612.3
2017-Sep-15 23:00N 28°08' W 015°05'510.5
2017-Sep-15 22:30N 28°11' W 014°59'611.8
2017-Sep-15 22:00N 28°16' W 014°57'612.1
2017-Sep-15 21:30N 28°22' W 014°54'612.4
2017-Sep-15 21:00N 28°27' W 014°50'612.5
2017-Sep-15 20:30N 28°32' W 014°46'612.4
2017-Sep-15 20:01N 28°37' W 014°42'712.5
2017-Sep-15 19:27N 28°43' W 014°38'512.5
2017-Sep-15 19:01N 28°47' W 014°34'712.2
2017-Sep-15 18:29N 28°53' W 014°30'612.0
2017-Sep-15 17:58N 28°58' W 014°26'612.2
2017-Sep-15 17:31N 29°02' W 014°22'712.4
2017-Sep-15 16:57N 29°08' W 014°17'612.3
2017-Sep-15 16:27N 29°13' W 014°14'511.7
2017-Sep-15 16:01N 29°17' W 014°10'612.2
2017-Sep-15 15:30N 29°22' W 014°06'612.3
2017-Sep-15 15:00N 29°27' W 014°02'612.3
2017-Sep-15 14:30N 29°32' W 013°59'612.4
2017-Sep-15 13:59N 29°38' W 013°54'612.6
2017-Sep-15 13:30N 29°42' W 013°49'612.4
2017-Sep-15 13:00N 29°46' W 013°44'612.3
2017-Sep-15 12:31N 29°50' W 013°38'612.2
2017-Sep-15 11:59N 29°54' W 013°33'612.2
2017-Sep-15 11:30N 29°58' W 013°28'612.1
2017-Sep-15 11:00N 30°02' W 013°23'612.1
2017-Sep-15 10:30N 30°07' W 013°18'612.1
2017-Sep-15 09:59N 30°11' W 013°13'612.3
2017-Sep-15 09:30N 30°15' W 013°08'612.4
2017-Sep-15 09:00N 30°19' W 013°02'612.4
2017-Sep-15 08:30N 30°24' W 012°57'612.6
2017-Sep-15 08:00N 30°28' W 012°52'612.8
2017-Sep-15 07:30N 30°32' W 012°46'612.8
2017-Sep-15 07:00N 30°37' W 012°41'612.6
2017-Sep-15 06:31N 30°41' W 012°36'612.3
2017-Sep-15 06:00N 30°45' W 012°30'612.4
2017-Sep-15 05:30N 30°49' W 012°25'612.2
2017-Sep-15 05:01N 30°54' W 012°20'612.3
2017-Sep-15 04:29N 30°58' W 012°15'612.3
2017-Sep-15 04:00N 31°02' W 012°09'1212.4
2017-Sep-15 03:00N 31°10' W 011°59'612.1
2017-Sep-15 02:30N 31°15' W 011°54'1911.9
2017-Sep-15 00:55N 31°28' W 011°38'2212.0
2017-Sep-14 23:07N 31°42' W 011°19'212.5
2017-Sep-14 22:59N 31°43' W 011°18'612.4
2017-Sep-14 22:29N 31°48' W 011°13'1012.8
2017-Sep-14 21:44N 31°54' W 011°05'312.8
2017-Sep-14 21:31N 31°56' W 011°02'812.7
2017-Sep-14 20:51N 32°02' W 010°55'412.5
2017-Sep-14 20:30N 32°05' W 010°51'612.4
2017-Sep-14 20:01N 32°09' W 010°46'612.4
2017-Sep-14 19:30N 32°13' W 010°40'612.5
2017-Sep-14 19:00N 32°18' W 010°35'612.3
2017-Sep-14 18:30N 32°22' W 010°30'612.1
2017-Sep-14 18:00N 32°26' W 010°25'611.9
2017-Sep-14 17:30N 32°30' W 010°19'611.9
2017-Sep-14 17:00N 32°34' W 010°14'612.1
2017-Sep-14 16:29N 32°38' W 010°09'712.3
2017-Sep-14 15:54N 32°43' W 010°02'1112.3
2017-Sep-14 14:59N 32°51' W 009°52'612.3
2017-Sep-14 14:30N 32°55' W 009°47'3912.5
2017-Sep-14 11:21N 33°22' W 009°13'1412.8
2017-Sep-14 10:18N 33°31' W 009°01'4812.7
2017-Sep-14 06:33N 34°04' W 008°20'112.0
2017-Sep-14 06:27N 34°05' W 008°19'511.8
2017-Sep-14 06:01N 34°08' W 008°14'611.9
2017-Sep-14 05:30N 34°12' W 008°09'612.0
2017-Sep-14 05:00N 34°16' W 008°04'611.8
2017-Sep-14 04:30N 34°21' W 007°58'3112.1
2017-Sep-14 01:54N 34°42' W 007°31'912.1
2017-Sep-14 01:09N 34°48' W 007°23'211.6
2017-Sep-14 00:57N 34°50' W 007°21'1412.0
2017-Sep-13 23:48N 34°59' W 007°08'412.8
2017-Sep-13 23:29N 35°02' W 007°04'1412.3
2017-Sep-13 22:21N 35°10' W 006°51'412.1
2017-Sep-13 22:00N 35°13' W 006°47'612.4
2017-Sep-13 21:29N 35°18' W 006°42'3612.5
2017-Sep-13 18:38N 35°43' W 006°11'312.7
2017-Sep-13 18:25N 35°45' W 006°09'612.5
2017-Sep-13 17:59N 35°49' W 006°04'3412.8
2017-Sep-13 15:19N 36°01' W 005°25'412.2
2017-Sep-13 15:01N 36°02' W 005°20'22312.3
2017-Sep-12 20:54N 36°31' W 000°45'513.0
2017-Sep-12 20:30N 36°32' W 000°39'713.1
2017-Sep-12 19:58N 36°34' W 000°31'14213.3
2017-Sep-12 09:18N 37°12' E 002°20'412.9
2017-Sep-12 09:00N 37°13' E 002°24'613.0
2017-Sep-12 08:31N 37°15' E 002°32'816.5
2017-Sep-12 08:00N 37°17' E 002°42'613.0
2017-Sep-12 07:30N 37°19' E 002°50'3512.7
2017-Sep-12 04:45N 37°28' E 003°32'312.6
2017-Sep-12 04:29N 37°29' E 003°36'612.5
2017-Sep-12 03:59N 37°31' E 003°44'612.6
2017-Sep-12 03:30N 37°32' E 003°51'612.7
2017-Sep-12 03:00N 37°34' E 003°59'612.6
2017-Sep-12 02:30N 37°36' E 004°07'712.4
2017-Sep-12 01:58N 37°37' E 004°15'612.6
2017-Sep-12 01:30N 37°37' E 004°22'612.6
2017-Sep-12 01:00N 37°38' E 004°30'612.6
2017-Sep-12 00:30N 37°38' E 004°38'612.5
2017-Sep-12 00:00N 37°39' E 004°46'612.3
2017-Sep-11 23:30N 37°39' E 004°54'612.3
2017-Sep-11 22:59N 37°40' E 005°02'612.4
2017-Sep-11 22:30N 37°40' E 005°09'612.4
2017-Sep-11 22:00N 37°41' E 005°17'612.4
2017-Sep-11 21:30N 37°42' E 005°25'32610.9
2017-Sep-10 15:39N 37°00' E 012°12'212.3
2017-Sep-10 15:30N 36°60' E 012°14'612.2
2017-Sep-10 15:00N 36°58' E 012°21'1212.3
2017-Sep-10 14:00N 36°53' E 012°36'612.0
2017-Sep-10 13:30N 36°51' E 012°42'612.0
2017-Sep-10 13:00N 36°49' E 012°49'612.0
2017-Sep-10 12:30N 36°47' E 012°56'611.9
2017-Sep-10 12:00N 36°45' E 013°03'611.7
2017-Sep-10 11:30N 36°43' E 013°10'612.1
2017-Sep-10 11:00N 36°41' E 013°17'612.1
2017-Sep-10 10:30N 36°38' E 013°24'612.2
2017-Sep-10 10:00N 36°36' E 013°31'612.1
2017-Sep-10 09:29N 36°34' E 013°39'612.1
2017-Sep-10 09:00N 36°32' E 013°46'612.0
2017-Sep-10 08:30N 36°30' E 013°53'612.1
2017-Sep-10 08:00N 36°28' E 013°60'612.1
2017-Sep-10 07:30N 36°26' E 014°07'612.0
2017-Sep-10 07:00N 36°23' E 014°14'612.1
2017-Sep-10 06:30N 36°21' E 014°21'612.3
2017-Sep-10 06:00N 36°19' E 014°28'612.4
2017-Sep-10 05:30N 36°17' E 014°35'612.4
2017-Sep-10 05:00N 36°15' E 014°42'612.3
2017-Sep-10 04:30N 36°14' E 014°50'  

Dump ship's entire track history